createdAt,value
2023-04-12T00:00:12.090Z,100776.34
2023-04-12T00:02:39.957Z,100771.78
2023-04-12T00:05:09.461Z,100725.19
2023-04-12T00:07:36.089Z,100773.19
2023-04-12T00:10:03.384Z,100780.78
2023-04-12T00:12:29.798Z,100770.09
2023-04-12T00:14:56.259Z,100767.03
2023-04-12T00:17:22.711Z,100765.78
2023-04-12T00:19:50.349Z,100719.25
2023-04-12T00:22:16.876Z,100745.88
2023-04-12T00:24:43.647Z,100741.97
2023-04-12T00:27:10.398Z,100743.44
2023-04-12T00:29:37.027Z,100715.19
2023-04-12T00:32:05.454Z,100697.63
2023-04-12T00:34:31.981Z,100692.34
2023-04-12T00:36:58.454Z,100692.25
2023-04-12T00:39:24.926Z,100737.06
2023-04-12T00:41:51.349Z,100726.34
2023-04-12T00:44:20.473Z,100718.19
2023-04-12T00:46:47.292Z,100714.59
2023-04-12T00:49:15.449Z,100708.34
2023-04-12T00:51:42.380Z,100710.88
2023-04-12T00:54:08.937Z,100706.34
2023-04-12T00:56:36.874Z,100681.38
2023-04-12T00:59:03.500Z,100679.72
2023-04-12T01:01:31.933Z,100698.78
2023-04-12T01:04:01.476Z,100677.22
2023-04-12T01:06:55.732Z,100651.56
2023-04-12T01:09:35.927Z,100687.97
2023-04-12T01:12:16.619Z,100687.88
2023-04-12T01:15:02.541Z,100666.69
2023-04-12T01:17:37.863Z,100663.09
2023-04-12T01:20:14.504Z,100628.63
2023-04-12T01:22:54.712Z,100662.25
2023-04-12T01:25:52.552Z,100644.41
2023-04-12T01:28:24.342Z,100654.53
2023-04-12T01:30:52.166Z,100646.72
2023-04-12T01:33:18.985Z,100649.97
2023-04-12T01:35:48.223Z,100645.66
2023-04-12T01:38:15.035Z,100644.56
2023-04-12T01:40:42.631Z,100645.19
2023-04-12T01:43:14.040Z,100647.75
2023-04-12T01:45:40.809Z,100639.91
2023-04-12T01:48:12.492Z,100632.94
2023-04-12T01:50:56.461Z,100605.47
2023-04-12T01:53:43.160Z,100624.88
2023-04-12T01:56:10.523Z,100610.91
2023-04-12T01:58:39.670Z,100595.00
2023-04-12T02:01:08.461Z,100603.19
2023-04-12T02:03:37.445Z,100613.56
2023-04-12T02:06:05.772Z,100605.72
2023-04-12T02:08:32.516Z,100564.41
2023-04-12T02:10:59.014Z,100598.75
2023-04-12T02:13:26.671Z,100586.00
2023-04-12T02:15:54.551Z,100585.00
2023-04-12T02:18:21.062Z,100575.63
2023-04-12T02:20:47.572Z,100582.63
2023-04-12T02:23:13.996Z,100570.94
2023-04-12T02:25:41.317Z,100557.69
2023-04-12T02:28:07.893Z,100546.34
2023-04-12T02:30:34.362Z,100562.53
2023-04-12T02:33:02.333Z,100518.81
2023-04-12T02:35:32.009Z,100548.34
2023-04-12T02:37:58.602Z,100528.94
2023-04-12T02:40:25.102Z,100520.00
2023-04-12T02:42:51.509Z,100503.69
2023-04-12T02:45:18.070Z,100513.00
2023-04-12T02:47:44.534Z,100522.50
2023-04-12T02:50:11.613Z,100518.03
2023-04-12T02:52:38.123Z,100480.63
2023-04-12T02:55:04.978Z,100500.84
2023-04-12T02:57:31.628Z,100488.22
2023-04-12T02:59:58.076Z,100455.84
2023-04-12T03:02:24.773Z,100472.34
2023-04-12T03:04:51.357Z,100465.88
2023-04-12T03:07:19.694Z,100456.38
2023-04-12T03:09:47.741Z,100442.19
2023-04-12T03:12:16.025Z,100455.41
2023-04-12T03:14:42.986Z,100446.84
2023-04-12T03:17:09.534Z,100395.63
2023-04-12T03:19:36.711Z,100439.91
2023-04-12T03:22:04.546Z,100430.16
2023-04-12T03:24:34.238Z,100423.75
2023-04-12T03:27:06.837Z,100431.25
2023-04-12T03:29:33.377Z,100380.34
2023-04-12T03:31:59.865Z,100416.44
2023-04-12T03:34:33.037Z,100418.38
2023-04-12T03:37:01.171Z,100411.13
2023-04-12T03:39:28.464Z,100408.59
2023-04-12T03:41:55.507Z,100394.06
2023-04-12T03:44:22.550Z,100400.81
2023-04-12T03:46:49.446Z,100399.56
2023-04-12T03:49:16.645Z,100392.34
2023-04-12T03:51:43.624Z,100385.38
2023-04-12T03:54:11.092Z,100376.59
2023-04-12T03:56:38.680Z,100368.19
2023-04-12T03:59:07.705Z,100376.00
2023-04-12T04:01:35.308Z,100369.47
2023-04-12T04:04:03.502Z,100354.56
2023-04-12T04:06:30.454Z,100353.47
2023-04-12T04:08:57.784Z,100348.31
2023-04-12T04:11:25.565Z,100309.09
2023-04-12T04:13:52.116Z,100333.13
2023-04-12T04:16:19.163Z,100331.00
2023-04-12T04:18:46.137Z,100314.59
2023-04-12T04:21:14.356Z,100307.63
2023-04-12T04:23:44.788Z,100323.19
2023-04-12T04:26:11.863Z,100296.59
2023-04-12T04:28:39.458Z,100283.84
2023-04-12T04:31:06.382Z,100296.19
2023-04-12T04:33:33.721Z,100315.25
2023-04-12T04:36:01.006Z,100297.66
2023-04-12T04:38:28.374Z,100289.72
2023-04-12T04:40:55.264Z,100280.44
2023-04-12T04:43:22.043Z,100288.63
2023-04-12T04:45:51.659Z,100295.38
2023-04-12T04:48:21.546Z,100279.59
2023-04-12T04:50:48.566Z,100269.69
2023-04-12T04:53:18.747Z,100262.03
2023-04-12T04:55:45.250Z,100260.53
2023-04-12T04:58:11.848Z,100270.28
2023-04-12T05:00:38.747Z,100232.78
2023-04-12T05:03:05.582Z,100254.66
2023-04-12T05:05:32.654Z,100254.41
2023-04-12T05:07:59.146Z,100263.06
2023-04-12T05:10:25.775Z,100261.38
2023-04-12T05:12:52.330Z,100252.34
2023-04-12T05:15:19.034Z,100261.59
2023-04-12T05:17:46.065Z,100240.56
2023-04-12T05:20:12.533Z,100245.25
2023-04-12T05:22:39.327Z,100239.44
2023-04-12T05:25:06.455Z,100258.78
2023-04-12T05:27:32.925Z,100254.06
2023-04-12T05:29:59.771Z,100200.94
2023-04-12T05:32:26.534Z,100242.09
2023-04-12T05:34:53.045Z,100224.13
2023-04-12T05:37:19.803Z,100225.03
2023-04-12T05:39:46.260Z,100224.66
2023-04-12T05:42:12.774Z,100222.03
2023-04-12T05:44:40.009Z,100209.09
2023-04-12T05:47:16.198Z,100220.91
2023-04-12T05:49:42.642Z,100218.53
2023-04-12T05:52:09.154Z,100220.25
2023-04-12T05:54:35.776Z,100207.44
2023-04-12T05:57:02.790Z,100208.75
2023-04-12T05:59:29.759Z,100199.13
2023-04-12T06:01:56.416Z,100187.00
2023-04-12T06:04:24.200Z,100186.59
2023-04-12T06:06:56.140Z,100184.66
2023-04-12T06:09:22.976Z,100188.88
2023-04-12T06:11:49.469Z,100151.28
2023-04-12T06:14:16.334Z,100168.47
2023-04-12T06:16:42.880Z,100180.50
2023-04-12T06:19:11.226Z,100165.13
2023-04-12T06:21:37.790Z,100172.13
2023-04-12T06:24:04.448Z,100154.09
2023-04-12T06:26:38.905Z,100145.13
2023-04-12T06:29:06.472Z,100147.22
2023-04-12T06:31:33.028Z,100151.53
2023-04-12T06:34:01.035Z,100151.53
2023-04-12T06:36:27.582Z,100139.50
2023-04-12T06:38:55.363Z,100142.69
2023-04-12T06:41:22.273Z,100111.50
2023-04-12T06:43:48.839Z,100139.94
2023-04-12T06:46:15.972Z,100132.00
2023-04-12T06:48:42.512Z,100096.72
2023-04-12T06:51:10.216Z,100136.13
2023-04-12T06:53:38.327Z,100132.69
2023-04-12T06:56:05.627Z,100098.31
2023-04-12T06:58:32.133Z,100123.69
2023-04-12T07:01:09.966Z,100121.03
2023-04-12T07:03:37.123Z,100112.66
2023-04-12T07:06:13.781Z,100124.97
2023-04-12T07:08:50.717Z,100105.19
2023-04-12T07:11:21.322Z,100068.09
2023-04-12T07:13:49.196Z,100110.06
2023-04-12T07:16:16.088Z,100090.03
2023-04-12T07:18:42.576Z,100111.09
2023-04-12T07:21:09.218Z,100095.56
2023-04-12T07:23:35.747Z,100090.56
2023-04-12T07:26:02.687Z,100067.00
2023-04-12T07:28:29.164Z,100088.06
2023-04-12T07:30:55.839Z,100087.91
2023-04-12T07:33:22.450Z,100068.00
2023-04-12T07:35:48.999Z,100081.22
2023-04-12T07:38:16.801Z,100082.06
2023-04-12T07:40:43.651Z,100069.22
2023-04-12T07:43:10.364Z,100063.72
2023-04-12T07:45:37.559Z,100068.22
2023-04-12T07:48:04.376Z,100067.38
2023-04-12T07:50:31.282Z,100069.56
2023-04-12T07:53:17.659Z,100061.38
2023-04-12T07:55:44.277Z,100046.84
2023-04-12T07:58:10.792Z,100058.53
2023-04-12T08:00:37.240Z,99990.25
2023-04-12T08:03:03.849Z,100055.22
2023-04-12T08:05:30.694Z,100044.69
2023-04-12T08:07:57.093Z,100039.66
2023-04-12T08:10:23.546Z,100038.16
2023-04-12T08:12:50.119Z,100024.13
2023-04-12T08:15:16.636Z,100025.09
2023-04-12T08:17:43.983Z,100013.22
2023-04-12T08:20:11.224Z,100007.19
2023-04-12T08:22:37.790Z,99947.28
2023-04-12T08:25:04.588Z,99991.47
2023-04-12T08:27:31.460Z,99993.66
2023-04-12T08:29:57.929Z,100000.97
2023-04-12T08:32:24.602Z,99992.28
2023-04-12T08:34:51.420Z,99991.25
2023-04-12T08:37:18.066Z,99985.09
2023-04-12T08:39:44.555Z,99966.88
2023-04-12T08:42:11.228Z,99964.69
2023-04-12T08:44:39.311Z,99921.19
2023-04-12T08:47:07.676Z,99959.00
2023-04-12T08:49:35.235Z,99952.50
2023-04-12T08:52:07.712Z,99937.91
2023-04-12T08:54:35.657Z,99920.84
2023-04-12T08:57:06.501Z,99927.00
2023-04-12T08:59:37.670Z,99917.78
2023-04-12T09:02:04.351Z,99912.75
2023-04-12T09:04:31.176Z,99891.19
2023-04-12T09:06:57.678Z,99926.47
2023-04-12T09:09:46.961Z,99912.69
2023-04-12T09:12:15.228Z,99912.69
2023-04-12T09:14:45.283Z,99916.97
2023-04-12T09:17:22.524Z,99901.66
2023-04-12T09:19:49.112Z,99895.41
2023-04-12T09:22:16.085Z,99904.56
2023-04-12T09:24:50.640Z,99880.06
2023-04-12T09:27:21.006Z,99856.31
2023-04-12T09:29:51.464Z,99858.84
2023-04-12T09:32:28.688Z,99830.09
2023-04-12T09:35:01.252Z,99851.28
2023-04-12T09:37:28.107Z,99837.22
2023-04-12T09:40:03.625Z,99835.72
2023-04-12T09:42:34.465Z,99820.38
2023-04-12T09:45:20.201Z,99830.00
2023-04-12T09:47:46.994Z,99813.00
2023-04-12T09:50:21.995Z,99820.66
2023-04-12T09:52:49.538Z,99816.69
2023-04-12T09:55:17.536Z,99828.88
2023-04-12T09:57:45.250Z,99832.59
2023-04-12T10:00:20.234Z,99835.84
2023-04-12T10:02:52.746Z,99828.41
2023-04-12T10:05:22.249Z,99795.19
2023-04-12T10:07:50.128Z,99818.72
2023-04-12T10:10:18.487Z,99814.19
2023-04-12T10:12:46.614Z,99796.47
2023-04-12T10:15:13.683Z,99799.16
2023-04-12T10:17:45.837Z,99794.41
2023-04-12T10:20:17.005Z,99772.97
2023-04-12T10:22:52.268Z,99785.16
2023-04-12T10:25:21.735Z,99762.66
2023-04-12T10:27:48.875Z,99746.75
2023-04-12T10:30:22.472Z,99777.47
2023-04-12T10:33:10.092Z,99781.44
2023-04-12T10:35:53.370Z,99788.94
2023-04-12T10:38:20.627Z,99776.84
2023-04-12T10:41:19.534Z,99780.25
2023-04-12T10:43:49.786Z,99786.81
2023-04-12T10:46:35.191Z,99783.03
2023-04-12T10:49:09.459Z,99771.97
2023-04-12T10:51:36.285Z,99783.16
2023-04-12T10:54:08.660Z,99778.75
2023-04-12T10:56:39.778Z,99789.91
2023-04-12T10:59:07.881Z,99782.38
2023-04-12T11:01:38.397Z,99749.25
2023-04-12T11:04:14.540Z,99785.59
2023-04-12T11:07:04.589Z,99786.84
2023-04-12T11:09:33.937Z,99786.50
2023-04-12T11:12:08.830Z,99784.75
2023-04-12T11:14:37.996Z,99763.59
2023-04-12T11:17:13.892Z,99790.13
2023-04-12T11:19:43.687Z,99779.69
2023-04-12T11:22:12.123Z,99765.13
2023-04-12T11:24:49.061Z,99759.31
2023-04-12T11:27:16.385Z,99763.31
2023-04-12T11:29:43.650Z,99780.72
2023-04-12T11:32:14.654Z,99789.53
2023-04-12T11:34:43.264Z,99741.38
2023-04-12T11:37:10.493Z,99779.91
2023-04-12T11:39:41.304Z,99765.06
2023-04-12T11:42:13.349Z,99756.88
2023-04-12T11:44:55.167Z,99785.25
2023-04-12T11:47:24.811Z,99783.56
2023-04-12T11:49:57.371Z,99778.72
2023-04-12T11:52:32.394Z,99774.22
2023-04-12T11:55:06.481Z,99775.91
2023-04-12T11:57:34.285Z,99735.56
2023-04-12T12:00:01.345Z,99776.22
2023-04-12T12:02:32.973Z,99768.91
2023-04-12T12:05:03.684Z,99718.91
2023-04-12T12:07:31.637Z,99762.91
2023-04-12T12:09:58.588Z,99738.22
2023-04-12T12:12:25.560Z,99753.56
2023-04-12T12:14:52.150Z,99750.06
2023-04-12T12:17:19.454Z,99748.22
2023-04-12T12:19:46.604Z,99742.91
2023-04-12T12:22:15.676Z,99736.38
2023-04-12T12:24:52.278Z,99739.84
2023-04-12T12:27:23.920Z,99741.81
2023-04-12T12:29:55.127Z,99731.00
2023-04-12T12:32:23.747Z,99712.97
2023-04-12T12:34:58.170Z,99730.81
2023-04-12T12:37:26.165Z,99725.78
2023-04-12T12:40:16.685Z,99721.44
2023-04-12T12:42:47.560Z,99723.44
2023-04-12T12:45:17.555Z,99730.78
2023-04-12T12:48:00.508Z,99710.59
2023-04-12T12:50:28.831Z,99702.91
2023-04-12T12:52:57.013Z,99654.97
2023-04-12T12:55:24.742Z,99696.41
2023-04-12T12:58:07.464Z,99649.09
2023-04-12T13:00:35.513Z,99687.22
2023-04-12T13:03:02.757Z,99674.06
2023-04-12T13:05:30.057Z,99676.69
2023-04-12T13:07:56.947Z,99660.66
2023-04-12T13:10:23.807Z,99672.09
2023-04-12T13:12:50.394Z,99643.47
2023-04-12T13:15:23.199Z,99631.09
2023-04-12T13:17:54.768Z,99659.63
2023-04-12T13:20:22.653Z,99652.53
2023-04-12T13:22:51.421Z,99648.66
2023-04-12T13:25:19.805Z,99647.59
2023-04-12T13:27:48.770Z,99657.38
2023-04-12T13:30:15.607Z,99644.75
2023-04-12T13:32:42.057Z,99648.00
2023-04-12T13:35:09.037Z,99641.81
2023-04-12T13:37:35.514Z,99646.63
2023-04-12T13:40:01.982Z,99635.09
2023-04-12T13:42:28.546Z,99619.38
2023-04-12T13:44:55.319Z,99646.16
2023-04-12T13:47:22.498Z,99624.47
2023-04-12T13:49:49.366Z,99622.63
2023-04-12T13:52:16.096Z,99615.53
2023-04-12T13:54:43.261Z,99608.50
2023-04-12T13:57:10.198Z,99624.47
2023-04-12T13:59:36.780Z,99619.13
2023-04-12T14:02:03.403Z,99577.44
2023-04-12T14:04:31.511Z,99603.03
2023-04-12T14:06:58.956Z,99626.69
2023-04-12T14:09:30.471Z,99594.72
2023-04-12T14:11:58.587Z,99613.13
2023-04-12T14:14:27.136Z,99613.78
2023-04-12T14:16:57.644Z,99584.22
2023-04-12T14:19:24.761Z,99613.78
2023-04-12T14:21:51.760Z,99600.50
2023-04-12T14:24:19.688Z,99609.81
2023-04-12T14:26:46.618Z,99616.84
2023-04-12T14:29:13.571Z,99607.97
2023-04-12T14:31:40.572Z,99607.31
2023-04-12T14:34:08.699Z,99605.00
2023-04-12T14:36:35.297Z,99582.91
2023-04-12T14:39:03.791Z,99602.69
2023-04-12T14:41:31.488Z,99603.53
2023-04-12T14:44:01.623Z,99581.06
2023-04-12T14:46:28.584Z,99590.34
2023-04-12T14:48:57.094Z,99540.94
2023-04-12T14:51:24.389Z,99595.03
2023-04-12T14:53:51.021Z,99568.34
2023-04-12T14:56:27.909Z,99576.13
2023-04-12T14:58:56.744Z,99579.66
2023-04-12T15:01:24.798Z,99573.28
2023-04-12T15:03:52.354Z,99576.78
2023-04-12T15:06:20.831Z,99581.66
2023-04-12T15:08:49.558Z,99574.47
2023-04-12T15:11:18.932Z,99569.13
2023-04-12T15:13:45.428Z,99577.16
2023-04-12T15:16:15.215Z,99558.97
2023-04-12T15:18:41.883Z,99574.47
2023-04-12T15:21:10.398Z,99570.66
2023-04-12T15:23:38.032Z,99559.19
2023-04-12T15:26:06.647Z,99553.69
2023-04-12T15:28:33.556Z,99553.97
2023-04-12T15:31:01.073Z,99551.19
2023-04-12T15:33:28.536Z,99530.25
2023-04-12T15:35:58.101Z,99560.34
2023-04-12T15:38:24.846Z,99547.50
2023-04-12T15:40:59.200Z,99497.97
2023-04-12T15:43:26.319Z,99510.25
2023-04-12T15:45:54.633Z,99544.47
2023-04-12T15:48:22.990Z,99547.97
2023-04-12T15:50:50.798Z,99546.97
2023-04-12T15:53:20.392Z,99547.81
2023-04-12T15:55:47.822Z,99557.66
2023-04-12T15:58:14.698Z,99533.50
2023-04-12T16:00:41.219Z,99532.31
2023-04-12T16:03:07.887Z,99537.28
2023-04-12T16:05:34.917Z,99535.09
2023-04-12T16:08:01.492Z,99510.19
2023-04-12T16:10:28.110Z,99532.13
2023-04-12T16:12:56.338Z,99548.81
2023-04-12T16:15:23.070Z,99537.47
2023-04-12T16:17:54.318Z,99517.59
2023-04-12T16:20:21.814Z,99535.50
2023-04-12T16:22:54.169Z,99533.66
2023-04-12T16:25:22.486Z,99539.19
2023-04-12T16:27:49.005Z,99537.34
2023-04-12T16:30:16.019Z,99528.88
2023-04-12T16:32:46.697Z,99537.56
2023-04-12T16:35:16.728Z,99496.19
2023-04-12T16:37:44.181Z,99531.06
2023-04-12T16:40:12.782Z,99540.94
2023-04-12T16:42:43.773Z,99525.59
2023-04-12T16:45:12.165Z,99535.09
2023-04-12T16:47:39.656Z,99521.53
2023-04-12T16:50:12.750Z,99517.97
2023-04-12T16:52:39.961Z,99500.34
2023-04-12T16:55:07.113Z,99515.94
2023-04-12T16:57:33.546Z,99518.59
2023-04-12T17:00:00.394Z,99510.78
2023-04-12T17:02:27.249Z,99514.47
2023-04-12T17:04:53.799Z,99510.16
2023-04-12T17:07:20.316Z,99523.66
2023-04-12T17:09:46.804Z,99517.69
2023-04-12T17:12:13.243Z,99497.56
2023-04-12T17:14:39.839Z,99502.84
2023-04-12T17:17:06.759Z,99484.41
2023-04-12T17:19:33.461Z,99494.34
2023-04-12T17:22:00.005Z,99494.34
2023-04-12T17:24:26.800Z,99429.69
2023-04-12T17:26:53.801Z,99492.97
2023-04-12T17:29:20.844Z,99443.66
2023-04-12T17:31:50.633Z,99486.81
2023-04-12T17:34:19.603Z,99478.97
2023-04-12T17:36:46.304Z,99474.47
2023-04-12T17:39:12.775Z,99461.03
2023-04-12T17:41:39.514Z,99443.28
2023-04-12T17:44:06.686Z,99452.06
2023-04-12T17:46:34.695Z,99455.06
2023-04-12T17:49:04.030Z,99449.81
2023-04-12T17:51:32.140Z,99477.31
2023-04-12T17:54:00.344Z,99435.03
2023-04-12T17:56:26.945Z,99471.22
2023-04-12T17:58:53.532Z,99477.84
2023-04-12T18:01:20.163Z,99484.00
2023-04-12T18:03:47.620Z,99471.75
2023-04-12T18:06:15.059Z,99486.91
2023-04-12T18:08:41.488Z,99477.75
2023-04-12T18:11:07.990Z,99484.41
2023-04-12T18:13:34.657Z,99476.09
2023-04-12T18:16:01.594Z,99480.25
2023-04-12T18:18:28.247Z,99469.44
2023-04-12T18:20:54.818Z,99476.56
2023-04-12T18:23:21.637Z,99465.94
2023-04-12T18:25:48.219Z,99446.66
2023-04-12T18:28:15.244Z,99471.75
2023-04-12T18:30:41.666Z,99472.41
2023-04-12T18:33:08.338Z,99498.75
2023-04-12T18:35:35.276Z,99487.78
2023-04-12T18:38:01.758Z,99493.94
2023-04-12T18:40:28.673Z,99501.81
2023-04-12T18:42:55.212Z,99532.84
2023-04-12T18:45:22.733Z,99538.00
2023-04-12T18:47:51.267Z,99524.56
2023-04-12T18:50:19.317Z,99404.53
2023-04-12T18:52:45.937Z,99492.97
2023-04-12T18:55:12.387Z,99531.19
2023-04-12T18:57:38.822Z,99531.19
2023-04-12T19:00:13.537Z,99501.47
2023-04-12T19:02:40.928Z,99528.59
2023-04-12T19:05:10.323Z,99504.00
2023-04-12T19:07:37.347Z,99549.63
2023-04-12T19:10:04.622Z,99516.84
2023-04-12T19:12:31.744Z,99560.00
2023-04-12T19:14:58.302Z,99554.19
2023-04-12T19:17:27.765Z,99555.53
2023-04-12T19:19:54.541Z,99562.41
2023-04-12T19:22:21.489Z,99569.59
2023-04-12T19:24:49.861Z,99574.56
2023-04-12T19:27:16.791Z,99569.09
2023-04-12T19:29:44.032Z,99578.28
2023-04-12T19:32:13.570Z,99586.13
2023-04-12T19:34:41.120Z,99582.84
2023-04-12T19:37:08.303Z,99586.41
2023-04-12T19:39:34.854Z,99602.72
2023-04-12T19:42:02.215Z,99582.81
2023-04-12T19:44:29.231Z,99603.59
2023-04-12T19:46:55.747Z,99613.59
2023-04-12T19:49:23.714Z,99614.09
2023-04-12T19:51:51.077Z,99564.16
2023-04-12T19:54:18.864Z,99581.63
2023-04-12T19:56:49.665Z,99606.25
2023-04-12T19:59:17.831Z,99566.66
2023-04-12T20:01:50.548Z,99598.31
2023-04-12T20:04:21.627Z,99588.28
2023-04-12T20:06:50.065Z,99564.63
2023-04-12T20:09:17.352Z,99585.81
2023-04-12T20:11:43.974Z,99579.47
2023-04-12T20:14:10.666Z,99529.50
2023-04-12T20:16:38.298Z,99574.59
2023-04-12T20:19:04.982Z,99582.28
2023-04-12T20:21:34.046Z,99575.78
2023-04-12T20:24:02.339Z,99579.75
2023-04-12T20:26:31.649Z,99570.59
2023-04-12T20:28:59.831Z,99573.91
2023-04-12T20:31:26.980Z,99571.25
2023-04-12T20:33:57.265Z,99558.88
2023-04-12T20:36:26.125Z,99585.38
2023-04-12T20:38:53.737Z,99570.34
2023-04-12T20:41:20.300Z,99549.19
2023-04-12T20:43:48.104Z,99547.97
2023-04-12T20:46:16.973Z,99587.25
2023-04-12T20:48:44.481Z,99585.03
2023-04-12T20:51:18.155Z,99584.41
2023-04-12T20:53:47.237Z,99578.13
2023-04-12T20:56:14.191Z,99582.59
2023-04-12T20:58:41.101Z,99574.78
2023-04-12T21:01:14.904Z,99569.63
2023-04-12T21:03:43.234Z,99555.44
2023-04-12T21:06:11.010Z,99580.03
2023-04-12T21:08:38.896Z,99579.19
2023-04-12T21:11:06.253Z,99563.19
2023-04-12T21:13:34.625Z,99536.75
2023-04-12T21:16:05.369Z,99539.09
2023-04-12T21:18:34.383Z,99586.50
2023-04-12T21:21:01.743Z,99590.81
2023-04-12T21:23:28.250Z,99521.03
2023-04-12T21:25:54.825Z,99601.16
2023-04-12T21:28:22.725Z,99602.31
2023-04-12T21:30:54.777Z,99583.91
2023-04-12T21:33:24.898Z,99606.88
2023-04-12T21:35:55.562Z,99555.66
2023-04-12T21:38:23.269Z,99612.72
2023-04-12T21:40:50.346Z,99634.13
2023-04-12T21:43:17.336Z,99640.91
2023-04-12T21:45:45.393Z,99639.69
2023-04-12T21:48:14.347Z,99606.47
2023-04-12T21:50:41.834Z,99642.56
2023-04-12T21:53:08.368Z,99654.31
2023-04-12T21:55:34.868Z,99650.75
2023-04-12T21:58:01.414Z,99667.66
2023-04-12T22:00:28.300Z,99658.34
2023-04-12T22:02:54.839Z,99668.56
2023-04-12T22:05:21.621Z,99660.91
2023-04-12T22:07:48.204Z,99660.91
2023-04-12T22:10:14.819Z,99635.88
2023-04-12T22:12:41.295Z,99623.50
2023-04-12T22:15:09.076Z,99631.31
2023-04-12T22:17:35.864Z,99627.72
2023-04-12T22:20:03.809Z,99634.53
2023-04-12T22:22:31.790Z,99651.63
2023-04-12T22:24:58.175Z,99641.63
2023-04-12T22:27:26.433Z,99641.06
2023-04-12T22:29:53.515Z,99647.06
2023-04-12T22:32:20.023Z,99623.06
2023-04-12T22:34:46.984Z,99650.75
2023-04-12T22:37:16.537Z,99664.50
2023-04-12T22:39:42.970Z,99651.28
2023-04-12T22:42:09.680Z,99637.53
2023-04-12T22:44:38.386Z,99666.81
2023-04-12T22:47:07.150Z,99644.66
2023-04-12T22:49:44.481Z,99656.72
2023-04-12T22:52:10.928Z,99658.25
2023-04-12T22:54:37.415Z,99660.75
2023-04-12T22:57:04.370Z,99657.81
2023-04-12T22:59:30.856Z,99650.56
2023-04-12T23:01:57.386Z,99646.09
2023-04-12T23:04:23.952Z,99643.03
2023-04-12T23:06:55.067Z,99641.06
2023-04-12T23:09:21.590Z,99635.50
2023-04-12T23:11:48.495Z,99643.31
2023-04-12T23:14:17.662Z,99637.09
2023-04-12T23:16:46.197Z,99618.59
2023-04-12T23:19:14.569Z,99613.72
2023-04-12T23:21:41.996Z,99636.63
2023-04-12T23:24:11.402Z,99632.56
2023-04-12T23:26:37.985Z,99604.47
2023-04-12T23:29:04.454Z,99636.25
2023-04-12T23:31:33.522Z,99622.25
2023-04-12T23:34:03.188Z,99648.56
2023-04-12T23:36:30.306Z,99640.22
2023-04-12T23:38:59.969Z,99639.69
2023-04-12T23:41:31.614Z,99651.81
2023-04-12T23:43:58.828Z,99647.91
2023-04-12T23:46:26.260Z,99654.59
2023-04-12T23:48:52.757Z,99655.44
2023-04-12T23:51:19.294Z,99649.16
2023-04-12T23:53:46.120Z,99603.34
2023-04-12T23:56:12.885Z,99647.56
2023-04-12T23:58:39.315Z,99621.41
